Aviation Digital Data Service (ADDS)

Output produced by METARs form (0152 UTC 08 February 2016)
found at http://aviationweather.gov/adds/metars/
 
KBWI 072339Z 0800/0906 03005KT P6SM OVC250 
     FM081900 09006KT P6SM BKN045 
     FM082200 10005KT P6SM OVC025 
     FM090000 10007KT 2SM -RASN OVC015 
     FM090300 09008KT 1SM -SN OVC008